sensor_id;sensor_type;location;lat;lon;timestamp;pressure;altitude;pressure_sealevel;temperature;humidity
18697;BME280;22617;43.690;27.956;2023-12-14T00:01:55;97850.03;;;9.46;100.00
18697;BME280;22617;43.690;27.956;2023-12-14T00:06:58;97856.00;;;9.51;100.00
18697;BME280;22617;43.690;27.956;2023-12-14T00:12:02;97843.00;;;9.51;100.00
18697;BME280;22617;43.690;27.956;2023-12-14T00:17:07;97848.16;;;9.54;100.00
18697;BME280;22617;43.690;27.956;2023-12-14T00:22:10;97859.50;;;9.50;100.00
18697;BME280;22617;43.690;27.956;2023-12-14T00:27:14;97854.34;;;9.49;100.00
18697;BME280;22617;43.690;27.956;2023-12-14T00:32:19;97866.59;;;9.41;100.00
18697;BME280;22617;43.690;27.956;2023-12-14T00:37:22;97850.97;;;9.42;100.00
18697;BME280;22617;43.690;27.956;2023-12-14T00:42:26;97852.03;;;9.32;100.00
18697;BME280;22617;43.690;27.956;2023-12-14T00:47:31;97860.66;;;9.34;100.00
18697;BME280;22617;43.690;27.956;2023-12-14T00:52:34;97850.44;;;9.25;100.00
18697;BME280;22617;43.690;27.956;2023-12-14T00:57:38;97846.91;;;9.28;100.00
18697;BME280;22617;43.690;27.956;2023-12-14T01:02:43;97843.34;;;9.33;100.00
18697;BME280;22617;43.690;27.956;2023-12-14T01:07:47;97837.97;;;9.42;100.00
18697;BME280;22617;43.690;27.956;2023-12-14T01:12:50;97837.13;;;9.42;100.00
18697;BME280;22617;43.690;27.956;2023-12-14T01:17:55;97833.56;;;9.46;100.00
18697;BME280;22617;43.690;27.956;2023-12-14T01:22:59;97812.66;;;9.53;100.00
18697;BME280;22617;43.690;27.956;2023-12-14T01:28:03;97820.38;;;9.56;100.00
18697;BME280;22617;43.690;27.956;2023-12-14T01:33:08;97808.22;;;9.58;100.00
18697;BME280;22617;43.690;27.956;2023-12-14T01:38:11;97815.97;;;9.60;100.00
18697;BME280;22617;43.690;27.956;2023-12-14T01:43:15;97816.91;;;9.56;100.00
18697;BME280;22617;43.690;27.956;2023-12-14T01:48:20;97795.41;;;9.48;100.00
18697;BME280;22617;43.690;27.956;2023-12-14T01:53:23;97807.16;;;9.21;100.00
18697;BME280;22617;43.690;27.956;2023-12-14T01:58:27;97806.75;;;8.96;100.00
18697;BME280;22617;43.690;27.956;2023-12-14T02:03:32;97800.78;;;8.90;100.00
18697;BME280;22617;43.690;27.956;2023-12-14T02:08:36;97786.91;;;8.91;100.00
18697;BME280;22617;43.690;27.956;2023-12-14T02:13:39;97805.91;;;8.93;100.00
18697;BME280;22617;43.690;27.956;2023-12-14T02:18:44;97806.69;;;8.99;100.00
18697;BME280;22617;43.690;27.956;2023-12-14T02:24:09;97807.22;;;9.18;100.00
18697;BME280;22617;43.690;27.956;2023-12-14T02:29:13;97804.59;;;9.19;100.00
18697;BME280;22617;43.690;27.956;2023-12-14T02:34:16;97812.41;;;9.18;100.00
18697;BME280;22617;43.690;27.956;2023-12-14T02:39:22;97800.28;;;9.18;100.00
18697;BME280;22617;43.690;27.956;2023-12-14T02:44:25;97801.94;;;9.21;100.00
18697;BME280;22617;43.690;27.956;2023-12-14T02:49:29;97799.31;;;9.24;100.00
18697;BME280;22617;43.690;27.956;2023-12-14T02:54:34;97795.94;;;9.19;100.00
18697;BME280;22617;43.690;27.956;2023-12-14T02:59:38;97798.56;;;9.17;100.00
18697;BME280;22617;43.690;27.956;2023-12-14T03:04:42;97783.13;;;9.10;100.00
18697;BME280;22617;43.690;27.956;2023-12-14T03:09:47;97801.31;;;9.08;100.00
18697;BME280;22617;43.690;27.956;2023-12-14T03:14:50;97800.25;;;9.20;100.00
18697;BME280;22617;43.690;27.956;2023-12-14T03:19:54;97787.44;;;9.09;100.00
18697;BME280;22617;43.690;27.956;2023-12-14T03:24:59;97797.59;;;9.23;100.00
18697;BME280;22617;43.690;27.956;2023-12-14T03:30:07;97782.69;;;9.33;100.00
18697;BME280;22617;43.690;27.956;2023-12-14T03:35:12;97799.84;;;9.41;100.00
18697;BME280;22617;43.690;27.956;2023-12-14T03:40:17;97792.91;;;9.43;100.00
18697;BME280;22617;43.690;27.956;2023-12-14T03:45:21;97792.09;;;9.40;100.00
18697;BME280;22617;43.690;27.956;2023-12-14T03:50:24;97795.50;;;9.43;100.00
18697;BME280;22617;43.690;27.956;2023-12-14T03:55:29;97806.75;;;9.44;100.00
18697;BME280;22617;43.690;27.956;2023-12-14T04:00:33;97791.28;;;9.36;100.00
18697;BME280;22617;43.690;27.956;2023-12-14T04:05:36;97803.13;;;9.51;100.00
18697;BME280;22617;43.690;27.956;2023-12-14T04:10:42;97794.38;;;9.56;100.00
18697;BME280;22617;43.690;27.956;2023-12-14T04:15:46;97790.03;;;9.55;100.00
18697;BME280;22617;43.690;27.956;2023-12-14T04:20:49;97800.53;;;9.52;100.00
18697;BME280;22617;43.690;27.956;2023-12-14T04:25:54;97797.91;;;9.52;100.00
18697;BME280;22617;43.690;27.956;2023-12-14T04:30:58;97791.59;;;9.66;100.00
18697;BME280;22617;43.690;27.956;2023-12-14T04:36:01;97787.16;;;9.69;100.00
18697;BME280;22617;43.690;27.956;2023-12-14T04:41:07;97790.59;;;9.71;100.00
18697;BME280;22617;43.690;27.956;2023-12-14T04:46:10;97781.97;;;9.69;100.00
18697;BME280;22617;43.690;27.956;2023-12-14T04:51:14;97792.91;;;9.86;100.00
18697;BME280;22617;43.690;27.956;2023-12-14T04:56:18;97793.69;;;9.90;100.00
18697;BME280;22617;43.690;27.956;2023-12-14T05:01:22;97789.41;;;9.87;100.00
18697;BME280;22617;43.690;27.956;2023-12-14T05:06:25;97779.81;;;9.89;100.00
18697;BME280;22617;43.690;27.956;2023-12-14T05:11:30;97779.66;;;9.97;100.00
18697;BME280;22617;43.690;27.956;2023-12-14T05:16:34;97770.06;;;9.99;100.00
18697;BME280;22617;43.690;27.956;2023-12-14T05:21:37;97762.22;;;10.02;100.00
18697;BME280;22617;43.690;27.956;2023-12-14T05:26:42;97742.16;;;10.07;100.00
18697;BME280;22617;43.690;27.956;2023-12-14T05:31:46;97756.16;;;10.01;100.00
18697;BME280;22617;43.690;27.956;2023-12-14T05:36:49;97755.34;;;9.98;100.00
18697;BME280;22617;43.690;27.956;2023-12-14T05:41:54;97751.19;;;9.89;100.00
18697;BME280;22617;43.690;27.956;2023-12-14T05:46:58;97759.16;;;9.82;100.00
18697;BME280;22617;43.690;27.956;2023-12-14T05:52:01;97766.03;;;9.86;100.00
18697;BME280;22617;43.690;27.956;2023-12-14T05:57:06;97789.00;;;10.07;100.00
18697;BME280;22617;43.690;27.956;2023-12-14T06:02:10;97784.22;;;10.27;100.00
18697;BME280;22617;43.690;27.956;2023-12-14T06:07:14;97793.63;;;10.34;100.00
18697;BME280;22617;43.690;27.956;2023-12-14T06:12:20;97794.22;;;10.45;100.00
18697;BME280;22617;43.690;27.956;2023-12-14T06:17:24;97799.47;;;10.44;100.00
18697;BME280;22617;43.690;27.956;2023-12-14T06:22:31;97790.81;;;10.43;100.00
18697;BME280;22617;43.690;27.956;2023-12-14T06:27:36;97796.53;;;10.59;100.00
18697;BME280;22617;43.690;27.956;2023-12-14T06:32:40;97789.63;;;10.57;100.00
18697;BME280;22617;43.690;27.956;2023-12-14T06:37:44;97794.81;;;10.58;100.00
18697;BME280;22617;43.690;27.956;2023-12-14T06:42:49;97794.56;;;10.69;100.00
18697;BME280;22617;43.690;27.956;2023-12-14T06:47:53;97799.34;;;10.85;100.00
18697;BME280;22617;43.690;27.956;2023-12-14T06:52:56;97798.47;;;10.86;100.00
18697;BME280;22617;43.690;27.956;2023-12-14T06:58:01;97800.69;;;11.02;100.00
18697;BME280;22617;43.690;27.956;2023-12-14T07:03:05;97795.28;;;11.09;100.00
18697;BME280;22617;43.690;27.956;2023-12-14T07:08:08;97798.44;;;11.22;100.00
18697;BME280;22617;43.690;27.956;2023-12-14T07:13:13;97801.53;;;11.36;100.00
18697;BME280;22617;43.690;27.956;2023-12-14T07:18:17;97811.97;;;11.36;100.00
18697;BME280;22617;43.690;27.956;2023-12-14T07:23:20;97797.44;;;11.58;100.00
18697;BME280;22617;43.690;27.956;2023-12-14T07:28:26;97802.38;;;11.69;100.00
18697;BME280;22617;43.690;27.956;2023-12-14T07:33:29;97800.09;;;11.89;100.00
18697;BME280;22617;43.690;27.956;2023-12-14T07:38:33;97816.66;;;11.88;100.00
18697;BME280;22617;43.690;27.956;2023-12-14T07:43:38;97808.88;;;12.16;100.00
18697;BME280;22617;43.690;27.956;2023-12-14T07:48:42;97804.19;;;12.27;100.00
18697;BME280;22617;43.690;27.956;2023-12-14T07:53:45;97817.03;;;12.35;100.00
18697;BME280;22617;43.690;27.956;2023-12-14T07:58:51;97821.53;;;12.57;100.00
18697;BME280;22617;43.690;27.956;2023-12-14T08:03:54;97822.34;;;12.59;100.00
18697;BME280;22617;43.690;27.956;2023-12-14T08:08:58;97837.19;;;12.59;100.00
18697;BME280;22617;43.690;27.956;2023-12-14T08:14:03;97832.91;;;12.56;100.00
18697;BME280;22617;43.690;27.956;2023-12-14T08:19:06;97815.97;;;12.68;100.00
18697;BME280;22617;43.690;27.956;2023-12-14T08:24:10;97826.25;;;12.74;100.00
18697;BME280;22617;43.690;27.956;2023-12-14T08:29:15;97822.22;;;12.90;100.00
18697;BME280;22617;43.690;27.956;2023-12-14T08:34:19;97820.38;;;12.94;100.00
18697;BME280;22617;43.690;27.956;2023-12-14T08:39:22;97821.59;;;13.10;100.00
18697;BME280;22617;43.690;27.956;2023-12-14T08:44:27;97812.97;;;13.06;100.00
18697;BME280;22617;43.690;27.956;2023-12-14T08:49:31;97803.50;;;13.30;100.00
18697;BME280;22617;43.690;27.956;2023-12-14T08:54:34;97809.06;;;13.46;100.00
18697;BME280;22617;43.690;27.956;2023-12-14T08:59:39;97806.81;;;13.60;100.00
18697;BME280;22617;43.690;27.956;2023-12-14T09:04:45;97806.13;;;13.55;100.00
18697;BME280;22617;43.690;27.956;2023-12-14T09:09:49;97798.75;;;13.66;100.00
18697;BME280;22617;43.690;27.956;2023-12-14T09:14:54;97787.19;;;13.72;100.00
18697;BME280;22617;43.690;27.956;2023-12-14T09:19:57;97787.09;;;13.75;100.00
18697;BME280;22617;43.690;27.956;2023-12-14T09:25:01;97791.59;;;13.94;100.00
18697;BME280;22617;43.690;27.956;2023-12-14T09:30:08;97777.69;;;13.92;100.00
18697;BME280;22617;43.690;27.956;2023-12-14T09:35:13;97777.53;;;13.97;100.00
18697;BME280;22617;43.690;27.956;2023-12-14T09:40:16;97796.03;;;13.92;100.00
18697;BME280;22617;43.690;27.956;2023-12-14T09:45:24;97797.19;;;14.09;100.00
18697;BME280;22617;43.690;27.956;2023-12-14T09:50:31;97795.25;;;14.14;100.00
18697;BME280;22617;43.690;27.956;2023-12-14T09:55:36;97798.59;;;14.17;100.00
18697;BME280;22617;43.690;27.956;2023-12-14T10:00:42;97788.06;;;14.19;100.00
18697;BME280;22617;43.690;27.956;2023-12-14T10:05:46;97788.94;;;14.19;100.00
18697;BME280;22617;43.690;27.956;2023-12-14T10:10:52;97790.69;;;14.19;100.00
18697;BME280;22617;43.690;27.956;2023-12-14T10:15:59;97792.38;;;14.20;100.00
18697;BME280;22617;43.690;27.956;2023-12-14T10:21:03;97805.44;;;14.21;100.00
18697;BME280;22617;43.690;27.956;2023-12-14T10:26:25;97796.09;;;14.37;100.00
18697;BME280;22617;43.690;27.956;2023-12-14T10:31:33;97795.44;;;14.54;100.00
18697;BME280;22617;43.690;27.956;2023-12-14T10:36:43;97787.97;;;14.67;100.00
18697;BME280;22617;43.690;27.956;2023-12-14T10:41:50;97791.19;;;14.73;100.00
18697;BME280;22617;43.690;27.956;2023-12-14T10:47:10;97797.91;;;14.80;100.00
18697;BME280;22617;43.690;27.956;2023-12-14T10:52:13;97794.22;;;14.84;100.00
18697;BME280;22617;43.690;27.956;2023-12-14T10:57:17;97812.72;;;14.81;100.00
18697;BME280;22617;43.690;27.956;2023-12-14T11:02:22;97803.38;;;14.74;100.00
18697;BME280;22617;43.690;27.956;2023-12-14T11:07:45;97807.19;;;14.67;100.00
18697;BME280;22617;43.690;27.956;2023-12-14T11:12:57;97810.81;;;14.63;100.00
18697;BME280;22617;43.690;27.956;2023-12-14T11:18:21;97816.06;;;14.63;100.00
18697;BME280;22617;43.690;27.956;2023-12-14T11:23:33;97816.00;;;14.65;100.00
18697;BME280;22617;43.690;27.956;2023-12-14T11:28:38;97819.63;;;14.62;100.00
18697;BME280;22617;43.690;27.956;2023-12-14T11:33:46;97814.69;;;14.53;100.00
18697;BME280;22617;43.690;27.956;2023-12-14T11:38:50;97817.28;;;14.55;100.00
18697;BME280;22617;43.690;27.956;2023-12-14T11:43:56;97821.91;;;14.48;100.00
18697;BME280;22617;43.690;27.956;2023-12-14T11:49:01;97835.03;;;14.48;100.00
18697;BME280;22617;43.690;27.956;2023-12-14T11:54:06;97832.88;;;14.34;100.00
18697;BME280;22617;43.690;27.956;2023-12-14T11:59:10;97835.84;;;14.25;100.00
18697;BME280;22617;43.690;27.956;2023-12-14T12:04:15;97833.75;;;14.12;100.00
18697;BME280;22617;43.690;27.956;2023-12-14T12:09:36;97853.44;;;13.98;100.00
18697;BME280;22617;43.690;27.956;2023-12-14T12:14:41;97870.09;;;13.96;100.00
18697;BME280;22617;43.690;27.956;2023-12-14T12:19:46;97865.47;;;13.79;100.00
18697;BME280;22617;43.690;27.956;2023-12-14T12:24:50;97863.28;;;13.42;100.00
18697;BME280;22617;43.690;27.956;2023-12-14T12:30:07;97879.66;;;13.23;100.00
18697;BME280;22617;43.690;27.956;2023-12-14T12:35:12;97881.63;;;13.15;100.00
18697;BME280;22617;43.690;27.956;2023-12-14T12:40:15;97889.97;;;12.99;100.00
18697;BME280;22617;43.690;27.956;2023-12-14T12:45:21;97886.81;;;12.88;100.00
18697;BME280;22617;43.690;27.956;2023-12-14T12:50:29;97887.00;;;12.82;100.00
18697;BME280;22617;43.690;27.956;2023-12-14T12:55:33;97888.81;;;12.80;100.00
18697;BME280;22617;43.690;27.956;2023-12-14T13:00:37;97910.72;;;12.76;100.00
18697;BME280;22617;43.690;27.956;2023-12-14T13:05:42;97896.84;;;12.74;100.00
18697;BME280;22617;43.690;27.956;2023-12-14T13:10:45;97906.84;;;12.60;100.00
18697;BME280;22617;43.690;27.956;2023-12-14T13:15:52;97914.69;;;12.60;100.00
18697;BME280;22617;43.690;27.956;2023-12-14T13:20:57;97934.97;;;12.52;100.00
18697;BME280;22617;43.690;27.956;2023-12-14T13:26:01;97918.03;;;12.36;100.00
18697;BME280;22617;43.690;27.956;2023-12-14T13:31:05;97937.31;;;12.32;100.00
18697;BME280;22617;43.690;27.956;2023-12-14T13:36:10;97937.47;;;12.26;100.00
18697;BME280;22617;43.690;27.956;2023-12-14T13:41:14;97962.00;;;12.20;100.00
18697;BME280;22617;43.690;27.956;2023-12-14T13:46:17;97968.38;;;12.10;100.00
18697;BME280;22617;43.690;27.956;2023-12-14T13:51:27;97962.78;;;11.91;100.00
18697;BME280;22617;43.690;27.956;2023-12-14T13:56:31;97985.75;;;11.77;100.00
18697;BME280;22617;43.690;27.956;2023-12-14T14:01:34;98015.50;;;11.70;100.00
18697;BME280;22617;43.690;27.956;2023-12-14T14:06:39;98017.50;;;11.59;100.00
18697;BME280;22617;43.690;27.956;2023-12-14T14:11:43;98023.84;;;11.47;100.00
18697;BME280;22617;43.690;27.956;2023-12-14T14:16:49;98041.44;;;11.39;100.00
18697;BME280;22617;43.690;27.956;2023-12-14T14:21:54;98047.03;;;11.22;100.00
18697;BME280;22617;43.690;27.956;2023-12-14T14:26:58;98064.63;;;11.13;100.00
18697;BME280;22617;43.690;27.956;2023-12-14T14:32:01;98067.00;;;10.83;100.00
18697;BME280;22617;43.690;27.956;2023-12-14T14:37:06;98058.59;;;10.69;100.00
18697;BME280;22617;43.690;27.956;2023-12-14T14:42:10;98062.47;;;10.48;100.00
18697;BME280;22617;43.690;27.956;2023-12-14T14:47:14;98057.63;;;10.29;100.00
18697;BME280;22617;43.690;27.956;2023-12-14T14:52:19;98058.69;;;10.17;100.00
18697;BME280;22617;43.690;27.956;2023-12-14T14:57:22;98062.19;;;10.13;100.00
18697;BME280;22617;43.690;27.956;2023-12-14T15:02:26;98071.88;;;10.06;100.00
18697;BME280;22617;43.690;27.956;2023-12-14T15:07:31;98098.72;;;10.10;100.00
18697;BME280;22617;43.690;27.956;2023-12-14T15:12:35;98107.56;;;10.00;100.00
18697;BME280;22617;43.690;27.956;2023-12-14T15:17:39;98122.44;;;9.92;100.00
18697;BME280;22617;43.690;27.956;2023-12-14T15:22:44;98116.53;;;9.79;100.00
18697;BME280;22617;43.690;27.956;2023-12-14T15:27:48;98121.81;;;9.75;100.00
18697;BME280;22617;43.690;27.956;2023-12-14T15:32:52;98115.75;;;9.76;100.00
18697;BME280;22617;43.690;27.956;2023-12-14T15:37:57;98116.63;;;9.75;100.00
18697;BME280;22617;43.690;27.956;2023-12-14T15:43:00;98124.56;;;9.67;100.00
18697;BME280;22617;43.690;27.956;2023-12-14T15:48:03;98128.16;;;9.57;100.00
18697;BME280;22617;43.690;27.956;2023-12-14T15:53:10;98135.94;;;9.58;100.00
18697;BME280;22617;43.690;27.956;2023-12-14T15:58:14;98143.84;;;9.52;100.00
18697;BME280;22617;43.690;27.956;2023-12-14T16:03:17;98136.22;;;9.37;100.00
18697;BME280;22617;43.690;27.956;2023-12-14T16:08:22;98138.84;;;9.36;100.00
18697;BME280;22617;43.690;27.956;2023-12-14T16:13:26;98138.09;;;9.29;100.00
18697;BME280;22617;43.690;27.956;2023-12-14T16:18:30;98125.84;;;9.37;100.00
18697;BME280;22617;43.690;27.956;2023-12-14T16:23:35;98138.91;;;9.31;100.00
18697;BME280;22617;43.690;27.956;2023-12-14T16:28:40;98140.56;;;9.35;100.00
18697;BME280;22617;43.690;27.956;2023-12-14T16:33:43;98149.28;;;9.33;100.00
18697;BME280;22617;43.690;27.956;2023-12-14T16:38:49;98156.22;;;9.32;100.00
18697;BME280;22617;43.690;27.956;2023-12-14T16:43:53;98174.63;;;9.17;100.00
18697;BME280;22617;43.690;27.956;2023-12-14T16:48:58;98172.06;;;9.14;100.00
18697;BME280;22617;43.690;27.956;2023-12-14T16:54:03;98172.00;;;9.18;100.00
18697;BME280;22617;43.690;27.956;2023-12-14T16:59:07;98175.47;;;9.21;100.00
18697;BME280;22617;43.690;27.956;2023-12-14T17:04:15;98181.50;;;9.23;100.00
18697;BME280;22617;43.690;27.956;2023-12-14T17:09:20;98174.59;;;9.18;100.00
18697;BME280;22617;43.690;27.956;2023-12-14T17:14:25;98193.72;;;9.13;100.00
18697;BME280;22617;43.690;27.956;2023-12-14T17:19:28;98203.25;;;9.14;100.00
18697;BME280;22617;43.690;27.956;2023-12-14T17:24:33;98216.31;;;9.08;100.00
18697;BME280;22617;43.690;27.956;2023-12-14T17:29:37;98229.31;;;9.09;100.00
18697;BME280;22617;43.690;27.956;2023-12-14T17:34:43;98236.22;;;9.09;100.00
18697;BME280;22617;43.690;27.956;2023-12-14T17:39:48;98250.88;;;9.19;100.00
18697;BME280;22617;43.690;27.956;2023-12-14T17:44:53;98238.78;;;9.13;100.00
18697;BME280;22617;43.690;27.956;2023-12-14T17:49:57;98240.50;;;9.14;100.00
18697;BME280;22617;43.690;27.956;2023-12-14T17:55:07;98247.44;;;9.14;100.00
18697;BME280;22617;43.690;27.956;2023-12-14T18:00:12;98251.69;;;9.21;100.00
18697;BME280;22617;43.690;27.956;2023-12-14T18:05:16;98255.19;;;9.17;100.00
18697;BME280;22617;43.690;27.956;2023-12-14T18:10:21;98255.25;;;9.14;100.00
18697;BME280;22617;43.690;27.956;2023-12-14T18:15:25;98261.28;;;9.16;100.00
18697;BME280;22617;43.690;27.956;2023-12-14T18:20:29;98268.25;;;9.14;100.00
18697;BME280;22617;43.690;27.956;2023-12-14T18:25:35;98265.66;;;9.12;100.00
18697;BME280;22617;43.690;27.956;2023-12-14T18:30:40;98267.38;;;9.13;100.00
18697;BME280;22617;43.690;27.956;2023-12-14T18:35:43;98275.19;;;9.12;100.00
18697;BME280;22617;43.690;27.956;2023-12-14T18:40:49;98277.81;;;9.07;100.00
18697;BME280;22617;43.690;27.956;2023-12-14T18:45:52;98278.69;;;9.08;100.00
18697;BME280;22617;43.690;27.956;2023-12-14T18:50:56;98286.53;;;9.05;100.00
18697;BME280;22617;43.690;27.956;2023-12-14T18:56:01;98282.19;;;9.04;100.00
18697;BME280;22617;43.690;27.956;2023-12-14T19:01:05;98298.63;;;9.07;100.00
18697;BME280;22617;43.690;27.956;2023-12-14T19:06:09;98308.09;;;9.11;100.00
18697;BME280;22617;43.690;27.956;2023-12-14T19:11:17;98318.41;;;9.22;100.00
18697;BME280;22617;43.690;27.956;2023-12-14T19:16:22;98305.47;;;9.17;100.00
18697;BME280;22617;43.690;27.956;2023-12-14T19:21:26;98322.78;;;9.20;100.00
18697;BME280;22617;43.690;27.956;2023-12-14T19:26:31;98314.94;;;9.23;100.00
18697;BME280;22617;43.690;27.956;2023-12-14T19:31:35;98320.28;;;9.11;100.00
18697;BME280;22617;43.690;27.956;2023-12-14T19:36:39;98334.91;;;9.18;100.00
18697;BME280;22617;43.690;27.956;2023-12-14T19:41:44;98322.78;;;9.18;100.00
18697;BME280;22617;43.690;27.956;2023-12-14T19:46:47;98339.25;;;9.21;100.00
18697;BME280;22617;43.690;27.956;2023-12-14T19:51:51;98327.13;;;9.18;100.00
18697;BME280;22617;43.690;27.956;2023-12-14T19:56:56;98327.06;;;9.23;100.00
18697;BME280;22617;43.690;27.956;2023-12-14T20:01:59;98331.41;;;9.24;100.00
18697;BME280;22617;43.690;27.956;2023-12-14T20:07:03;98328.72;;;9.31;100.00
18697;BME280;22617;43.690;27.956;2023-12-14T20:12:09;98335.75;;;9.25;100.00
18697;BME280;22617;43.690;27.956;2023-12-14T20:17:12;98337.41;;;9.30;100.00
18697;BME280;22617;43.690;27.956;2023-12-14T20:22:15;98333.91;;;9.31;100.00
18697;BME280;22617;43.690;27.956;2023-12-14T20:27:20;98346.09;;;9.26;100.00
18697;BME280;22617;43.690;27.956;2023-12-14T20:32:24;98349.56;;;9.28;100.00
18697;BME280;22617;43.690;27.956;2023-12-14T20:37:29;98353.94;;;9.23;100.00
18697;BME280;22617;43.690;27.956;2023-12-14T20:42:34;98359.19;;;9.17;100.00
18697;BME280;22617;43.690;27.956;2023-12-14T20:47:37;98366.97;;;9.20;100.00
18697;BME280;22617;43.690;27.956;2023-12-14T20:52:42;98382.50;;;9.26;100.00
18697;BME280;22617;43.690;27.956;2023-12-14T20:57:47;98380.84;;;9.17;100.00
18697;BME280;22617;43.690;27.956;2023-12-14T21:02:50;98374.81;;;9.14;100.00
18697;BME280;22617;43.690;27.956;2023-12-14T21:07:54;98397.34;;;9.12;100.00
18697;BME280;22617;43.690;27.956;2023-12-14T21:12:59;98387.00;;;9.09;100.00
18697;BME280;22617;43.690;27.956;2023-12-14T21:18:02;98384.41;;;9.07;100.00
18697;BME280;22617;43.690;27.956;2023-12-14T21:23:07;98390.47;;;9.08;100.00
18697;BME280;22617;43.690;27.956;2023-12-14T21:28:12;98392.16;;;9.12;100.00
18697;BME280;22617;43.690;27.956;2023-12-14T21:33:16;98401.72;;;9.10;100.00
18697;BME280;22617;43.690;27.956;2023-12-14T21:38:20;98406.06;;;9.08;100.00
18697;BME280;22617;43.690;27.956;2023-12-14T21:43:25;98419.91;;;9.10;100.00
18697;BME280;22617;43.690;27.956;2023-12-14T21:48:29;98414.72;;;9.10;100.00
18697;BME280;22617;43.690;27.956;2023-12-14T21:53:33;98410.38;;;9.09;100.00
18697;BME280;22617;43.690;27.956;2023-12-14T21:58:38;98411.28;;;9.06;100.00
18697;BME280;22617;43.690;27.956;2023-12-14T22:03:41;98413.88;;;9.03;100.00
18697;BME280;22617;43.690;27.956;2023-12-14T22:08:45;98439.03;;;8.98;100.00
18697;BME280;22617;43.690;27.956;2023-12-14T22:13:50;98449.47;;;8.97;100.00
18697;BME280;22617;43.690;27.956;2023-12-14T22:18:53;98452.06;;;8.97;100.00
18697;BME280;22617;43.690;27.956;2023-12-14T22:23:57;98446.84;;;9.00;100.00
18697;BME280;22617;43.690;27.956;2023-12-14T22:29:01;98446.03;;;8.92;100.00
18697;BME280;22617;43.690;27.956;2023-12-14T22:34:05;98459.03;;;8.92;100.00
18697;BME280;22617;43.690;27.956;2023-12-14T22:39:11;98459.03;;;8.89;100.00
18697;BME280;22617;43.690;27.956;2023-12-14T22:44:16;98461.66;;;8.87;100.00
18697;BME280;22617;43.690;27.956;2023-12-14T22:49:20;98455.59;;;8.84;100.00
18697;BME280;22617;43.690;27.956;2023-12-14T22:54:23;98445.22;;;8.84;100.00
18697;BME280;22617;43.690;27.956;2023-12-14T22:59:28;98454.75;;;8.79;100.00
18697;BME280;22617;43.690;27.956;2023-12-14T23:04:32;98442.56;;;8.90;100.00
18697;BME280;22617;43.690;27.956;2023-12-14T23:09:36;98446.19;;;8.64;100.00
18697;BME280;22617;43.690;27.956;2023-12-14T23:14:41;98447.91;;;8.65;100.00
18697;BME280;22617;43.690;27.956;2023-12-14T23:19:44;98444.50;;;8.54;100.00
18697;BME280;22617;43.690;27.956;2023-12-14T23:24:48;98467.00;;;8.57;100.00
18697;BME280;22617;43.690;27.956;2023-12-14T23:29:53;98486.00;;;8.65;100.00
18697;BME280;22617;43.690;27.956;2023-12-14T23:34:56;98496.50;;;8.47;100.00
18697;BME280;22617;43.690;27.956;2023-12-14T23:40:00;98500.84;;;8.43;100.00
18697;BME280;22617;43.690;27.956;2023-12-14T23:45:06;98506.03;;;8.43;100.00
18697;BME280;22617;43.690;27.956;2023-12-14T23:50:10;98548.44;;;8.44;100.00
18697;BME280;22617;43.690;27.956;2023-12-14T23:55:13;98555.38;;;8.39;100.00
